Time;durP1;ratioP1;P1;durP2;ratioP2;P2;SDS_P1;SDS_P2;PMS_P1;PMS_P2;Temp;Humidity;BMP_temperature;BMP_pressure;BME280_temperature;BME280_humidity;BME280_pressure;Samples;Min_cycle;Max_cycle;Signal;HPM_P1;HPM_P2
2021/12/24 00:02:21;;;;;;;;;;;5.90;96.60;;;;;;5086286;28;20019;-69
2021/12/24 00:04:46;;;;;;;;;;;6.00;96.90;;;;;;5088808;28;19927;-69
2021/12/24 00:07:12;;;;;;;;;;;6.00;96.70;;;;;;5089449;28;20551;-69
2021/12/24 00:09:39;;;;;;;;;;;6.00;96.80;;;;;;5088756;28;20391;-69
2021/12/24 00:12:11;;;;;;;;;;;6.00;96.80;;;;;;5095143;28;20373;-69
2021/12/24 00:14:41;;;;;;;;;;;6.00;96.90;;;;;;5085686;28;20387;-69
2021/12/24 00:17:07;;;;;;;;;;;6.00;96.90;;;;;;5087900;28;20346;-69
2021/12/24 00:19:56;;;;;;;;;;;6.00;96.90;;;;;;5088979;28;19920;-69
2021/12/24 00:36:13;;;;;;;;;;;6.10;97.00;;;;;;5112736;27;19912;-69
2021/12/24 00:38:39;;;;;;;;;;;6.10;96.90;;;;;;5092326;28;19916;-69
2021/12/24 00:41:05;;;;;;;;;;;6.10;97.00;;;;;;5106335;28;19911;-69
2021/12/24 00:43:31;;;;;;;;;;;6.10;97.00;;;;;;5097380;28;19931;-69
2021/12/24 00:45:56;;;;;;;;;;;6.10;96.90;;;;;;5105396;28;19915;-69
2021/12/24 00:48:22;;;;;;;;;;;6.10;96.80;;;;;;5095057;28;19966;-69
2021/12/24 00:56:00;;;;;;;;;;;6.20;96.90;;;;;;5108106;28;20367;-69
2021/12/24 00:58:25;;;;;;;;;;;6.20;96.80;;;;;;5096190;28;19919;-69
2021/12/24 01:00:51;;;;;;;;;;;6.20;97.00;;;;;;5092801;28;19912;-70
2021/12/24 01:03:17;;;;;;;;;;;6.20;97.00;;;;;;5095617;28;19912;-69
2021/12/24 01:05:42;;;;;;;;;;;6.20;97.10;;;;;;5099607;28;19916;-69
2021/12/24 01:08:09;;;;;;;;;;;6.20;97.00;;;;;;5092638;28;20360;-69
2021/12/24 01:10:36;;;;;;;;;;;6.30;97.10;;;;;;5093683;28;19915;-69
2021/12/24 01:13:02;;;;;;;;;;;6.20;97.10;;;;;;5092283;28;19923;-69
2021/12/24 01:15:29;;;;;;;;;;;6.20;97.10;;;;;;5079722;28;19908;-69
2021/12/24 01:18:18;;;;;;;;;;;6.30;97.20;;;;;;5089006;28;19985;-69
2021/12/24 01:20:52;;;;;;;;;;;6.20;97.20;;;;;;5076468;28;20000;-69
2021/12/24 01:23:54;;;;;;;;;;;6.30;97.30;;;;;;5093495;28;20072;-69
2021/12/24 01:26:13;;;;;;;;;;;6.30;97.30;;;;;;5088586;28;19916;-70
2021/12/24 01:29:04;;;;;;;;;;;6.30;97.30;;;;;;5091564;28;19908;-69
2021/12/24 01:44:58;;;;;;;;;;;6.30;97.20;;;;;;5080876;28;20046;-69
2021/12/24 01:47:24;;;;;;;;;;;6.40;97.30;;;;;;5093187;28;20361;-69
2021/12/24 01:49:50;;;;;;;;;;;6.40;97.10;;;;;;5083911;28;19917;-69
2021/12/24 01:52:16;;;;;;;;;;;6.40;97.10;;;;;;5084757;28;19927;-69
2021/12/24 01:54:42;;;;;;;;;;;6.40;97.20;;;;;;5091060;28;20011;-70
2021/12/24 01:57:08;;;;;;;;;;;6.40;97.20;;;;;;5091150;28;20284;-69
2021/12/24 01:59:33;;;;;;;;;;;6.40;97.30;;;;;;5093572;28;19921;-69
2021/12/24 02:01:59;;;;;;;;;;;6.40;97.30;;;;;;5098807;28;19913;-69
2021/12/24 02:04:24;;;;;;;;;;;6.40;97.40;;;;;;5092517;28;20072;-69
2021/12/24 02:06:50;;;;;;;;;;;6.40;97.50;;;;;;5095660;28;20354;-69
2021/12/24 02:09:16;;;;;;;;;;;6.50;97.60;;;;;;5095379;28;20010;-69
2021/12/24 02:11:41;;;;;;;;;;;6.50;97.40;;;;;;5097421;28;19924;-69
2021/12/24 02:14:08;;;;;;;;;;;6.40;97.40;;;;;;5093273;28;20323;-69
2021/12/24 02:30:15;;;;;;;;;;;6.50;97.40;;;;;;5093715;28;19942;-69
2021/12/24 02:32:41;;;;;;;;;;;6.50;97.30;;;;;;5089194;28;20003;-69
2021/12/24 02:35:07;;;;;;;;;;;6.50;97.50;;;;;;5118285;27;19912;-69
2021/12/24 02:37:33;;;;;;;;;;;6.50;97.50;;;;;;5093946;28;19912;-69
2021/12/24 02:39:58;;;;;;;;;;;6.50;97.50;;;;;;5091165;28;19920;-69
2021/12/24 02:42:24;;;;;;;;;;;6.60;97.70;;;;;;5093523;28;19916;-69
2021/12/24 02:44:50;;;;;;;;;;;6.60;97.60;;;;;;5088723;28;20350;-69
2021/12/24 02:55:02;;;;;;;;;;;6.60;97.60;;;;;;5090675;28;20053;-69
2021/12/24 02:57:30;;;;;;;;;;;6.60;97.60;;;;;;5088258;28;20375;-70
2021/12/24 03:00:03;;;;;;;;;;;6.60;97.70;;;;;;5091350;28;20514;-69
2021/12/24 03:02:30;;;;;;;;;;;6.60;97.60;;;;;;5090601;28;20447;-69
2021/12/24 03:04:56;;;;;;;;;;;6.60;97.50;;;;;;5105411;28;20217;-69
2021/12/24 03:07:21;;;;;;;;;;;6.60;97.60;;;;;;5092623;28;19912;-69
2021/12/24 03:09:47;;;;;;;;;;;6.60;97.50;;;;;;5089951;28;19908;-69
2021/12/24 03:12:13;;;;;;;;;;;6.60;97.60;;;;;;5088131;28;19943;-69
2021/12/24 03:14:39;;;;;;;;;;;6.70;97.50;;;;;;5092452;28;19912;-69
2021/12/24 03:17:09;;;;;;;;;;;6.70;97.60;;;;;;5089294;28;19912;-70
2021/12/24 03:19:35;;;;;;;;;;;6.70;97.60;;;;;;5089678;28;19908;-69
2021/12/24 03:22:25;;;;;;;;;;;6.60;97.60;;;;;;5087103;28;19927;-69
2021/12/24 03:24:46;;;;;;;;;;;6.70;97.70;;;;;;5090446;28;19966;-69
2021/12/24 03:27:12;;;;;;;;;;;6.70;97.60;;;;;;5086303;28;19920;-69
2021/12/24 03:29:38;;;;;;;;;;;6.70;97.70;;;;;;5090260;28;20007;-69
2021/12/24 03:32:03;;;;;;;;;;;6.70;97.70;;;;;;5086464;28;20011;-70
2021/12/24 03:34:29;;;;;;;;;;;6.70;97.70;;;;;;5102892;28;20361;-69
2021/12/24 03:36:54;;;;;;;;;;;6.70;97.80;;;;;;5090834;28;20285;-69
2021/12/24 03:39:20;;;;;;;;;;;6.70;97.70;;;;;;5089837;28;20000;-69
2021/12/24 03:41:46;;;;;;;;;;;6.70;97.70;;;;;;5090724;28;20033;-69
2021/12/24 03:44:14;;;;;;;;;;;6.70;97.70;;;;;;5089352;28;19916;-70
2021/12/24 03:46:54;;;;;;;;;;;6.70;97.70;;;;;;5090790;28;19912;-69
2021/12/24 03:49:37;;;;;;;;;;;6.70;97.80;;;;;;5090380;28;19919;-69
2021/12/24 03:53:02;;;;;;;;;;;6.80;97.80;;;;;;5088149;28;19916;-69
2021/12/24 03:54:59;;;;;;;;;;;6.80;97.80;;;;;;5097471;28;20285;-69
2021/12/24 03:57:25;;;;;;;;;;;6.70;97.70;;;;;;5097710;28;19916;-69
2021/12/24 03:59:50;;;;;;;;;;;6.70;97.70;;;;;;5100645;28;20287;-69
2021/12/24 04:02:16;;;;;;;;;;;6.80;97.70;;;;;;5094712;28;19926;-69
2021/12/24 04:04:41;;;;;;;;;;;6.80;97.70;;;;;;5103671;28;20018;-69
2021/12/24 04:07:07;;;;;;;;;;;6.80;97.70;;;;;;5091177;28;19960;-69
2021/12/24 04:09:34;;;;;;;;;;;6.80;97.70;;;;;;5106629;28;20015;-69
2021/12/24 04:12:00;;;;;;;;;;;6.80;97.70;;;;;;5095205;28;19919;-69
2021/12/24 04:14:25;;;;;;;;;;;6.80;97.70;;;;;;5099012;28;20277;-69
2021/12/24 04:16:51;;;;;;;;;;;6.80;97.80;;;;;;5095984;28;19920;-69
2021/12/24 04:19:26;;;;;;;;;;;6.80;97.80;;;;;;5097982;28;19923;-69
2021/12/24 04:24:53;;;;;;;;;;;;;;;;;;;;;
2021/12/24 04:27:18;;;;;;;;;;;6.80;97.90;;;;;;5095042;28;19931;-69
2021/12/24 04:29:43;;;;;;;;;;;6.80;97.80;;;;;;5095645;28;19923;-69
2021/12/24 04:32:13;;;;;;;;;;;6.80;97.80;;;;;;5104762;27;19920;-69
2021/12/24 04:34:43;;;;;;;;;;;6.80;97.80;;;;;;5096324;28;19951;-69
2021/12/24 04:39:54;;;;;;;;;;;6.80;97.90;;;;;;5094015;28;20356;-69
2021/12/24 05:03:57;;;;;;;;;;;6.90;98.20;;;;;;5094754;28;19912;-69
2021/12/24 05:08:51;;;;;;;;;;;6.90;97.90;;;;;;5092859;28;19916;-69
2021/12/24 05:11:18;;;;;;;;;;;6.90;97.90;;;;;;5092411;28;20436;-69
2021/12/24 05:13:43;;;;;;;;;;;6.90;97.90;;;;;;5094296;28;19908;-69
2021/12/24 05:21:36;;;;;;;;;;;6.90;98.00;;;;;;5095572;28;19920;-69
2021/12/24 05:24:01;;;;;;;;;;;7.00;98.10;;;;;;5091313;28;20539;-69
2021/12/24 05:26:27;;;;;;;;;;;7.00;98.00;;;;;;5090186;28;19916;-69
2021/12/24 05:28:52;;;;;;;;;;;6.90;98.00;;;;;;5091682;28;20353;-70
2021/12/24 05:31:19;;;;;;;;;;;6.90;98.00;;;;;;5090051;28;19916;-69
2021/12/24 05:33:44;;;;;;;;;;;6.90;97.90;;;;;;5097701;28;20319;-69
2021/12/24 05:36:10;;;;;;;;;;;6.90;97.90;;;;;;5094158;28;19916;-69
2021/12/24 05:38:35;;;;;;;;;;;7.00;98.00;;;;;;5097554;28;19920;-69
2021/12/24 05:41:01;;;;;;;;;;;6.90;98.00;;;;;;5092605;28;19916;-69
2021/12/24 05:43:26;;;;;;;;;;;7.00;97.90;;;;;;5098669;28;19916;-69
2021/12/24 05:45:52;;;;;;;;;;;6.90;97.80;;;;;;5094956;28;19920;-69
2021/12/24 05:48:18;;;;;;;;;;;6.90;97.80;;;;;;5099887;28;19943;-70
2021/12/24 05:50:43;;;;;;;;;;;7.00;97.90;;;;;;5100963;28;20345;-69
2021/12/24 05:53:09;;;;;;;;;;;7.00;97.80;;;;;;5097333;28;19912;-70
2021/12/24 05:55:34;;;;;;;;;;;6.90;97.80;;;;;;5093899;28;19923;-69
2021/12/24 05:58:02;;;;;;;;;;;7.00;97.80;;;;;;5095852;28;20471;-70
2021/12/24 06:00:27;;;;;;;;;;;6.90;97.80;;;;;;5095599;28;19912;-69
2021/12/24 06:02:53;;;;;;;;;;;6.90;97.90;;;;;;5090919;28;19920;-69
2021/12/24 06:05:18;;;;;;;;;;;7.00;98.00;;;;;;5096037;28;19916;-69
2021/12/24 06:07:44;;;;;;;;;;;6.90;97.90;;;;;;5090716;28;19961;-69
2021/12/24 06:10:09;;;;;;;;;;;6.90;97.90;;;;;;5103562;28;19926;-69
2021/12/24 06:12:35;;;;;;;;;;;7.00;97.90;;;;;;5094360;28;19939;-69
2021/12/24 06:15:06;;;;;;;;;;;7.00;97.90;;;;;;5089824;28;20019;-69
2021/12/24 06:17:33;;;;;;;;;;;7.00;97.90;;;;;;5095599;28;19916;-69
2021/12/24 06:19:58;;;;;;;;;;;7.00;97.90;;;;;;5101614;28;20250;-69
2021/12/24 06:22:24;;;;;;;;;;;7.00;97.90;;;;;;5085918;28;19920;-70
2021/12/24 06:24:50;;;;;;;;;;;7.00;97.90;;;;;;5089857;28;19916;-69
2021/12/24 06:27:15;;;;;;;;;;;7.00;97.90;;;;;;5092961;28;20326;-69
2021/12/24 06:29:41;;;;;;;;;;;7.00;97.90;;;;;;5093100;28;19916;-69
2021/12/24 06:32:06;;;;;;;;;;;7.00;97.90;;;;;;5091541;28;19912;-69
2021/12/24 06:34:32;;;;;;;;;;;7.00;97.90;;;;;;5088045;28;20383;-70
2021/12/24 06:36:58;;;;;;;;;;;7.00;97.90;;;;;;5089844;28;19921;-69
2021/12/24 06:39:24;;;;;;;;;;;7.00;97.90;;;;;;5089644;28;19955;-69
2021/12/24 06:41:50;;;;;;;;;;;7.00;97.90;;;;;;5089566;28;19951;-69
2021/12/24 06:44:16;;;;;;;;;;;7.00;97.90;;;;;;5072090;28;19916;-69
2021/12/24 06:46:42;;;;;;;;;;;7.00;97.80;;;;;;5090119;28;19923;-69
2021/12/24 06:49:08;;;;;;;;;;;7.00;98.00;;;;;;5091749;28;20377;-69
2021/12/24 06:51:34;;;;;;;;;;;7.00;97.90;;;;;;5092005;28;20408;-69
2021/12/24 06:53:59;;;;;;;;;;;7.00;97.90;;;;;;5090233;28;20047;-69
2021/12/24 06:56:25;;;;;;;;;;;7.00;97.80;;;;;;5089734;28;19980;-69
2021/12/24 06:58:51;;;;;;;;;;;7.00;97.80;;;;;;5090054;28;19985;-69
2021/12/24 07:01:17;;;;;;;;;;;7.00;97.90;;;;;;5088276;28;19974;-69
2021/12/24 07:03:42;;;;;;;;;;;7.00;97.90;;;;;;5090546;28;19912;-69
2021/12/24 07:06:08;;;;;;;;;;;7.00;97.80;;;;;;5089081;28;19969;-69
2021/12/24 07:08:33;;;;;;;;;;;7.00;97.80;;;;;;5091408;28;19908;-69
2021/12/24 07:10:59;;;;;;;;;;;7.00;97.90;;;;;;5086356;28;19912;-69
2021/12/24 07:13:25;;;;;;;;;;;7.00;97.90;;;;;;5100105;28;20034;-69
2021/12/24 07:15:50;;;;;;;;;;;7.00;97.80;;;;;;5090795;28;19953;-69
2021/12/24 07:18:16;;;;;;;;;;;7.00;97.80;;;;;;5090579;28;19912;-69
2021/12/24 07:20:41;;;;;;;;;;;7.00;97.70;;;;;;5087747;28;19912;-69
2021/12/24 07:23:07;;;;;;;;;;;7.00;97.80;;;;;;5089962;28;19908;-69
2021/12/24 07:25:33;;;;;;;;;;;7.00;97.70;;;;;;5091759;28;19916;-69
2021/12/24 07:28:00;;;;;;;;;;;7.10;97.80;;;;;;5097957;28;19912;-69
2021/12/24 07:30:26;;;;;;;;;;;7.00;97.70;;;;;;5093382;28;20007;-69
2021/12/24 07:32:52;;;;;;;;;;;7.00;97.70;;;;;;5091009;28;20462;-69
2021/12/24 07:35:18;;;;;;;;;;;7.10;97.80;;;;;;5090028;28;19918;-69
2021/12/24 07:37:44;;;;;;;;;;;7.10;97.80;;;;;;5090843;28;19912;-69
2021/12/24 07:40:10;;;;;;;;;;;7.00;97.80;;;;;;5089359;28;19912;-69
2021/12/24 07:42:37;;;;;;;;;;;7.10;97.80;;;;;;5092723;28;20390;-69
2021/12/24 07:45:04;;;;;;;;;;;7.10;97.80;;;;;;5092338;28;19916;-69
2021/12/24 07:47:37;;;;;;;;;;;7.00;97.90;;;;;;5096664;28;19912;-69
2021/12/24 07:50:16;;;;;;;;;;;7.00;97.80;;;;;;5094286;28;20588;-69
2021/12/24 07:52:42;;;;;;;;;;;7.00;97.90;;;;;;5100025;28;19915;-69
2021/12/24 07:55:09;;;;;;;;;;;7.10;97.90;;;;;;5094418;28;19920;-69
2021/12/24 07:57:35;;;;;;;;;;;7.10;98.00;;;;;;5100284;28;19911;-69
2021/12/24 08:00:01;;;;;;;;;;;7.10;98.00;;;;;;5092727;28;20140;-69
2021/12/24 08:02:27;;;;;;;;;;;7.10;98.00;;;;;;5082353;28;19920;-70
2021/12/24 08:04:53;;;;;;;;;;;7.00;98.10;;;;;;5087564;28;19920;-69
2021/12/24 08:07:22;;;;;;;;;;;7.10;97.90;;;;;;5085748;28;20609;-69
2021/12/24 08:09:48;;;;;;;;;;;7.10;98.00;;;;;;5086844;28;19923;-69
2021/12/24 08:12:14;;;;;;;;;;;7.10;97.90;;;;;;5084928;28;19915;-69
2021/12/24 08:14:40;;;;;;;;;;;7.10;98.00;;;;;;5084912;28;19919;-69
2021/12/24 08:17:06;;;;;;;;;;;7.10;97.90;;;;;;5086424;28;19912;-69
2021/12/24 08:19:31;;;;;;;;;;;7.10;98.00;;;;;;5088490;28;19931;-69
2021/12/24 08:21:57;;;;;;;;;;;7.10;97.90;;;;;;5084680;28;20340;-69
2021/12/24 08:24:22;;;;;;;;;;;7.10;98.00;;;;;;5079539;28;19923;-69
2021/12/24 08:26:48;;;;;;;;;;;7.10;97.90;;;;;;5084546;28;19923;-69
2021/12/24 08:29:14;;;;;;;;;;;7.10;97.90;;;;;;5086808;28;19995;-69
2021/12/24 08:31:39;;;;;;;;;;;7.10;98.00;;;;;;5089676;28;20307;-69
2021/12/24 08:34:05;;;;;;;;;;;7.10;98.00;;;;;;5088945;28;19919;-70
2021/12/24 08:36:31;;;;;;;;;;;7.10;97.90;;;;;;5089846;28;19966;-69
2021/12/24 08:38:57;;;;;;;;;;;7.10;98.00;;;;;;5080286;28;19982;-69
2021/12/24 08:41:25;;;;;;;;;;;7.10;98.00;;;;;;5092407;28;19954;-69
2021/12/24 08:43:51;;;;;;;;;;;7.10;98.00;;;;;;5093032;28;19992;-69
2021/12/24 08:46:17;;;;;;;;;;;7.10;98.10;;;;;;5091305;28;19912;-69
2021/12/24 08:48:43;;;;;;;;;;;7.10;98.10;;;;;;5092758;28;20054;-69
2021/12/24 08:51:08;;;;;;;;;;;7.10;97.90;;;;;;5088685;28;20006;-69
2021/12/24 08:53:34;;;;;;;;;;;7.10;98.00;;;;;;5088548;28;19998;-69
2021/12/24 08:55:59;;;;;;;;;;;7.10;97.90;;;;;;5091216;28;19923;-69
2021/12/24 08:58:25;;;;;;;;;;;7.10;98.10;;;;;;5083959;28;19916;-69
2021/12/24 09:00:51;;;;;;;;;;;7.10;98.00;;;;;;5089710;28;19916;-70
2021/12/24 09:03:16;;;;;;;;;;;7.10;98.00;;;;;;5083767;28;19923;-69
2021/12/24 09:05:42;;;;;;;;;;;7.20;98.00;;;;;;5088890;28;19951;-69
2021/12/24 09:08:07;;;;;;;;;;;7.20;98.00;;;;;;5089307;28;19916;-69
2021/12/24 09:10:33;;;;;;;;;;;7.20;98.10;;;;;;5085759;28;20558;-69
2021/12/24 09:13:00;;;;;;;;;;;7.20;98.00;;;;;;5085960;28;19913;-69
2021/12/24 09:15:29;;;;;;;;;;;7.20;98.00;;;;;;5090616;27;19916;-69
2021/12/24 09:17:56;;;;;;;;;;;7.20;97.90;;;;;;5087326;28;19979;-70
2021/12/24 09:20:27;;;;;;;;;;;7.20;98.00;;;;;;5091519;28;19958;-69
2021/12/24 09:22:55;;;;;;;;;;;7.20;98.10;;;;;;5085758;28;19974;-69
2021/12/24 09:25:22;;;;;;;;;;;7.30;98.20;;;;;;5091085;28;19952;-69
2021/12/24 09:27:48;;;;;;;;;;;7.30;98.10;;;;;;5093156;28;19912;-69
2021/12/24 09:30:13;;;;;;;;;;;7.30;98.20;;;;;;5090163;28;20426;-69
2021/12/24 09:32:39;;;;;;;;;;;7.30;98.10;;;;;;5099264;27;20365;-69
2021/12/24 09:35:04;;;;;;;;;;;7.20;98.10;;;;;;5089430;28;19916;-69
2021/12/24 09:37:30;;;;;;;;;;;7.30;98.20;;;;;;5087516;28;19915;-69
2021/12/24 09:39:55;;;;;;;;;;;7.30;98.10;;;;;;5089000;28;19924;-69
2021/12/24 09:42:23;;;;;;;;;;;7.30;98.10;;;;;;5083557;28;19912;-69
2021/12/24 09:44:48;;;;;;;;;;;7.30;98.20;;;;;;5088419;28;19954;-69
2021/12/24 09:47:14;;;;;;;;;;;7.30;98.10;;;;;;5084136;28;19940;-69
2021/12/24 09:49:39;;;;;;;;;;;7.30;98.10;;;;;;5090225;28;19911;-69
2021/12/24 09:52:05;;;;;;;;;;;7.30;98.10;;;;;;5091920;28;19912;-69
2021/12/24 09:54:31;;;;;;;;;;;7.30;98.10;;;;;;5091520;28;20044;-69
2021/12/24 09:56:57;;;;;;;;;;;7.30;98.10;;;;;;5093845;28;19923;-70
2021/12/24 09:59:23;;;;;;;;;;;7.30;98.10;;;;;;5094495;28;19922;-69
2021/12/24 10:01:55;;;;;;;;;;;7.30;98.10;;;;;;5090774;28;19995;-70
2021/12/24 10:04:21;;;;;;;;;;;7.40;98.20;;;;;;5098279;28;20496;-70
2021/12/24 10:06:52;;;;;;;;;;;7.40;98.20;;;;;;5092082;28;19954;-69
2021/12/24 10:09:20;;;;;;;;;;;7.40;98.20;;;;;;5092313;28;19950;-69
2021/12/24 10:11:46;;;;;;;;;;;7.40;98.20;;;;;;5092387;28;19914;-69
2021/12/24 10:14:12;;;;;;;;;;;7.40;98.20;;;;;;5091651;28;19958;-70
2021/12/24 10:16:42;;;;;;;;;;;7.40;98.10;;;;;;5091712;28;19916;-69
2021/12/24 10:19:09;;;;;;;;;;;7.40;98.20;;;;;;5090866;28;20011;-69
2021/12/24 10:21:34;;;;;;;;;;;7.40;98.00;;;;;;5088947;28;19912;-69
2021/12/24 10:24:01;;;;;;;;;;;7.50;98.30;;;;;;5089131;28;19912;-70
2021/12/24 10:26:44;;;;;;;;;;;7.50;98.20;;;;;;5089081;28;19919;-69
2021/12/24 10:29:15;;;;;;;;;;;7.50;98.40;;;;;;5089702;28;19912;-69
2021/12/24 10:31:43;;;;;;;;;;;7.60;98.30;;;;;;5091559;28;19931;-69
2021/12/24 10:34:28;;;;;;;;;;;7.50;98.20;;;;;;5090557;28;19925;-69
2021/12/24 10:36:57;;;;;;;;;;;7.60;98.10;;;;;;5091424;28;19916;-69
2021/12/24 10:39:28;;;;;;;;;;;7.50;98.20;;;;;;5089730;28;19919;-69
2021/12/24 10:41:54;;;;;;;;;;;7.60;98.10;;;;;;5103648;28;20276;-69
2021/12/24 10:44:22;;;;;;;;;;;7.50;98.10;;;;;;5089845;28;19942;-69
2021/12/24 10:47:06;;;;;;;;;;;7.50;98.10;;;;;;5083555;28;19915;-69
2021/12/24 10:54:54;;;;;;;;;;;7.60;98.10;;;;;;5083006;28;19920;-69
2021/12/24 10:57:22;;;;;;;;;;;7.50;98.10;;;;;;5090239;28;19912;-69
2021/12/24 10:59:50;;;;;;;;;;;7.50;98.10;;;;;;5088372;28;19935;-69
2021/12/24 11:02:17;;;;;;;;;;;7.50;98.10;;;;;;5096248;28;19967;-69
2021/12/24 11:04:42;;;;;;;;;;;7.50;98.20;;;;;;5087189;28;19912;-70
2021/12/24 11:07:28;;;;;;;;;;;7.50;98.10;;;;;;5080970;28;19958;-70
2021/12/24 11:10:06;;;;;;;;;;;7.50;98.20;;;;;;5074011;28;19912;-69
2021/12/24 11:12:38;;;;;;;;;;;7.50;98.20;;;;;;5082719;28;19912;-69
2021/12/24 11:15:23;;;;;;;;;;;7.50;98.20;;;;;;5085036;28;19916;-70
2021/12/24 11:17:50;;;;;;;;;;;7.50;98.20;;;;;;5091227;28;19938;-69
2021/12/24 11:20:16;;;;;;;;;;;7.50;98.50;;;;;;5088435;28;19973;-69
2021/12/24 11:22:49;;;;;;;;;;;7.50;98.20;;;;;;5100839;28;20442;-69
2021/12/24 11:25:14;;;;;;;;;;;7.60;98.20;;;;;;5086993;28;19966;-69
2021/12/24 11:27:40;;;;;;;;;;;7.50;98.10;;;;;;5086107;28;20568;-69
2021/12/24 11:30:06;;;;;;;;;;;7.50;98.00;;;;;;5085259;28;19920;-69
2021/12/24 11:32:31;;;;;;;;;;;7.50;98.20;;;;;;5084360;28;20296;-69
2021/12/24 11:34:57;;;;;;;;;;;7.60;98.20;;;;;;5091405;28;19916;-69
2021/12/24 11:37:22;;;;;;;;;;;7.60;98.20;;;;;;5087636;28;19912;-69
2021/12/24 11:39:48;;;;;;;;;;;7.60;98.10;;;;;;5089548;28;19916;-70
2021/12/24 11:42:14;;;;;;;;;;;7.50;98.10;;;;;;5087348;28;19920;-70
2021/12/24 11:44:40;;;;;;;;;;;7.60;98.20;;;;;;5089281;28;20416;-69
2021/12/24 11:47:05;;;;;;;;;;;7.60;98.10;;;;;;5085245;28;19919;-69
2021/12/24 11:49:31;;;;;;;;;;;7.50;98.20;;;;;;5089654;28;20483;-69
2021/12/24 11:51:57;;;;;;;;;;;7.60;98.10;;;;;;5086058;28;19955;-69
2021/12/24 11:54:22;;;;;;;;;;;7.60;98.20;;;;;;5089348;28;19915;-69
2021/12/24 11:56:53;;;;;;;;;;;7.60;98.10;;;;;;5088362;28;19963;-69
2021/12/24 11:59:33;;;;;;;;;;;7.60;98.00;;;;;;5101942;28;19912;-69
2021/12/24 12:01:59;;;;;;;;;;;7.60;98.00;;;;;;5085120;28;19966;-70
2021/12/24 12:04:24;;;;;;;;;;;7.60;98.10;;;;;;5089570;28;19932;-69
2021/12/24 12:06:51;;;;;;;;;;;7.60;98.10;;;;;;5087367;28;19912;-69
2021/12/24 12:09:16;;;;;;;;;;;7.60;98.00;;;;;;5090124;28;19912;-69
2021/12/24 12:11:45;;;;;;;;;;;7.60;98.00;;;;;;5087640;28;19919;-69
2021/12/24 12:14:11;;;;;;;;;;;7.60;98.10;;;;;;5089143;28;19928;-69
2021/12/24 12:16:42;;;;;;;;;;;7.60;98.00;;;;;;5091445;28;19916;-69
2021/12/24 12:19:42;;;;;;;;;;;7.60;98.00;;;;;;5092551;28;19975;-69
2021/12/24 12:27:18;;;;;;;;;;;7.70;98.10;;;;;;5094499;28;19923;-69
2021/12/24 12:29:45;;;;;;;;;;;7.70;98.00;;;;;;5091733;28;19931;-69
2021/12/24 12:32:16;;;;;;;;;;;7.70;98.10;;;;;;5092183;28;19920;-70
2021/12/24 12:34:45;;;;;;;;;;;7.70;98.10;;;;;;5091467;28;19920;-70
2021/12/24 12:37:11;;;;;;;;;;;7.70;98.00;;;;;;5095898;28;19920;-70
2021/12/24 12:39:37;;;;;;;;;;;7.70;98.10;;;;;;5089542;28;20034;-70
2021/12/24 12:42:03;;;;;;;;;;;7.70;98.10;;;;;;5091299;28;19913;-69
2021/12/24 12:44:29;;;;;;;;;;;7.70;98.00;;;;;;5092035;28;19916;-70
2021/12/24 12:47:08;;;;;;;;;;;7.70;97.90;;;;;;5088496;28;19912;-69
2021/12/24 12:49:35;;;;;;;;;;;7.80;98.00;;;;;;5092412;28;19908;-70
2021/12/24 12:52:02;;;;;;;;;;;7.70;98.00;;;;;;5090221;28;19916;-69
2021/12/24 12:54:34;;;;;;;;;;;7.70;98.00;;;;;;5091913;28;20526;-69
2021/12/24 12:57:11;;;;;;;;;;;7.70;98.00;;;;;;5104787;28;19920;-69
2021/12/24 12:59:37;;;;;;;;;;;7.70;98.10;;;;;;5091714;28;19912;-69
2021/12/24 13:02:02;;;;;;;;;;;7.70;98.20;;;;;;5090983;28;20444;-69
2021/12/24 13:04:28;;;;;;;;;;;7.70;98.20;;;;;;5092052;28;19912;-70
2021/12/24 13:06:54;;;;;;;;;;;7.70;98.20;;;;;;5101753;28;19919;-69
2021/12/24 13:09:25;;;;;;;;;;;7.70;98.20;;;;;;5092357;28;19973;-69
2021/12/24 13:11:52;;;;;;;;;;;7.70;98.10;;;;;;5099999;28;19912;-69
2021/12/24 13:14:19;;;;;;;;;;;7.70;98.10;;;;;;5094850;28;19930;-69
2021/12/24 13:16:52;;;;;;;;;;;7.70;98.10;;;;;;5107824;28;19958;-70
2021/12/24 13:25:22;;;;;;;;;;;7.70;98.20;;;;;;5096877;28;20036;-69
2021/12/24 13:27:52;;;;;;;;;;;7.70;98.20;;;;;;5088707;28;20238;-70
2021/12/24 13:30:23;;;;;;;;;;;7.70;98.20;;;;;;5099918;28;19919;-69
2021/12/24 13:32:52;;;;;;;;;;;7.70;98.20;;;;;;5095307;28;19992;-69
2021/12/24 13:35:19;;;;;;;;;;;7.70;98.20;;;;;;5091073;28;19916;-69
2021/12/24 13:37:47;;;;;;;;;;;7.70;98.20;;;;;;5120208;27;19921;-69
2021/12/24 13:40:15;;;;;;;;;;;7.70;98.20;;;;;;5090946;28;20007;-69
2021/12/24 13:42:52;;;;;;;;;;;7.70;98.20;;;;;;5088501;28;20365;-70
2021/12/24 13:45:18;;;;;;;;;;;7.70;98.60;;;;;;5104840;27;20577;-69
2021/12/24 13:55:35;;;;;;;;;;;7.60;98.20;;;;;;5092066;28;20007;-70
2021/12/24 13:58:02;;;;;;;;;;;7.70;98.20;;;;;;5092172;28;19927;-70
2021/12/24 14:00:29;;;;;;;;;;;7.70;98.20;;;;;;5091216;28;19953;-69
2021/12/24 14:02:57;;;;;;;;;;;7.70;98.30;;;;;;5086118;28;19912;-69
2021/12/24 14:05:23;;;;;;;;;;;7.70;98.20;;;;;;5091838;28;19923;-70
2021/12/24 14:08:08;;;;;;;;;;;7.60;98.20;;;;;;5089434;28;19920;-69
2021/12/24 14:10:34;;;;;;;;;;;7.70;98.30;;;;;;5090888;28;19916;-70
2021/12/24 14:13:07;;;;;;;;;;;7.70;98.20;;;;;;5089685;28;19912;-70
2021/12/24 14:15:45;;;;;;;;;;;7.70;98.20;;;;;;5091054;28;20349;-70
2021/12/24 14:18:31;;;;;;;;;;;7.60;98.20;;;;;;5089520;28;19919;-70
2021/12/24 14:23:31;;;;;;;;;;;7.60;98.30;;;;;;5092446;28;20416;-70
2021/12/24 14:25:58;;;;;;;;;;;7.60;98.30;;;;;;5090285;28;19966;-70
2021/12/24 14:28:24;;;;;;;;;;;7.70;98.30;;;;;;5088901;28;19916;-70
2021/12/24 14:31:00;;;;;;;;;;;7.60;98.30;;;;;;5090900;28;20578;-69
2021/12/24 14:33:26;;;;;;;;;;;7.60;98.30;;;;;;5090311;28;19999;-70
2021/12/24 14:35:52;;;;;;;;;;;7.60;98.30;;;;;;5090180;28;19999;-70
2021/12/24 14:38:22;;;;;;;;;;;7.60;98.30;;;;;;5089750;28;19920;-70
2021/12/24 14:40:55;;;;;;;;;;;7.60;98.40;;;;;;5089744;28;19947;-70
2021/12/24 14:43:20;;;;;;;;;;;7.60;98.30;;;;;;5089054;28;19916;-70
2021/12/24 14:45:47;;;;;;;;;;;7.60;98.30;;;;;;5089205;28;20475;-70
2021/12/24 14:48:16;;;;;;;;;;;7.60;98.30;;;;;;5088074;28;19912;-69
2021/12/24 14:50:41;;;;;;;;;;;7.60;98.30;;;;;;5096900;28;19920;-69
2021/12/24 14:53:07;;;;;;;;;;;7.60;98.40;;;;;;5089027;28;19956;-70
2021/12/24 14:56:04;;;;;;;;;;;7.50;98.30;;;;;;5101657;28;20482;-70
2021/12/24 14:58:37;;;;;;;;;;;7.50;98.30;;;;;;5059644;28;21247;-70
2021/12/24 15:01:09;;;;;;;;;;;7.50;98.30;;;;;;5089383;28;19971;-69
2021/12/24 15:03:36;;;;;;;;;;;7.50;98.30;;;;;;5087490;28;19916;-69
2021/12/24 15:06:13;;;;;;;;;;;7.50;98.30;;;;;;5091299;28;19915;-70
2021/12/24 15:08:39;;;;;;;;;;;7.50;98.30;;;;;;5087462;28;19925;-70
2021/12/24 15:11:11;;;;;;;;;;;7.50;98.30;;;;;;5090619;28;20369;-70
2021/12/24 15:13:44;;;;;;;;;;;7.50;98.30;;;;;;5086377;28;19912;-70
2021/12/24 15:16:12;;;;;;;;;;;7.50;98.30;;;;;;5082403;28;20428;-70
2021/12/24 15:18:38;;;;;;;;;;;7.50;98.30;;;;;;5089109;28;20599;-70
2021/12/24 15:21:03;;;;;;;;;;;7.50;98.30;;;;;;5087853;28;19915;-70
2021/12/24 15:23:29;;;;;;;;;;;7.50;98.40;;;;;;5091863;28;19912;-69
2021/12/24 15:25:55;;;;;;;;;;;7.50;98.30;;;;;;5096676;28;19916;-70
2021/12/24 15:28:23;;;;;;;;;;;7.50;98.30;;;;;;5089039;28;20805;-69
2021/12/24 15:30:49;;;;;;;;;;;7.50;98.30;;;;;;5092523;28;19920;-70
2021/12/24 15:33:15;;;;;;;;;;;7.50;98.40;;;;;;5089163;28;19920;-70
2021/12/24 15:35:41;;;;;;;;;;;7.50;98.30;;;;;;5090998;28;19999;-70
2021/12/24 15:38:06;;;;;;;;;;;7.50;98.30;;;;;;5089019;28;19912;-70
2021/12/24 15:40:33;;;;;;;;;;;7.50;98.30;;;;;;5089392;28;19922;-70
2021/12/24 15:43:02;;;;;;;;;;;7.50;98.30;;;;;;5089997;28;19914;-70
2021/12/24 15:45:32;;;;;;;;;;;7.50;98.30;;;;;;5090416;28;19928;-69
2021/12/24 15:47:58;;;;;;;;;;;7.50;98.30;;;;;;5090836;28;19916;-70
2021/12/24 15:50:23;;;;;;;;;;;7.50;98.40;;;;;;5091315;28;20273;-70
2021/12/24 15:52:49;;;;;;;;;;;7.50;98.40;;;;;;5093946;28;19919;-69
2021/12/24 15:55:14;;;;;;;;;;;7.50;98.60;;;;;;5091363;28;19920;-69
2021/12/24 15:57:40;;;;;;;;;;;7.50;98.30;;;;;;5088017;28;19924;-70
2021/12/24 16:00:06;;;;;;;;;;;7.50;98.30;;;;;;5092373;28;19958;-69
2021/12/24 16:02:31;;;;;;;;;;;7.50;98.30;;;;;;5087275;28;19927;-70
2021/12/24 16:04:57;;;;;;;;;;;7.40;98.30;;;;;;5091732;28;20410;-69
2021/12/24 16:07:22;;;;;;;;;;;7.40;98.30;;;;;;5087455;28;19920;-69
2021/12/24 16:09:48;;;;;;;;;;;7.40;98.30;;;;;;5092313;28;19916;-69
2021/12/24 16:12:14;;;;;;;;;;;7.40;98.40;;;;;;5091924;28;19956;-69
2021/12/24 16:14:41;;;;;;;;;;;7.50;98.40;;;;;;5091731;28;19922;-69
2021/12/24 16:17:07;;;;;;;;;;;7.40;98.30;;;;;;5088640;28;19916;-69
2021/12/24 16:19:32;;;;;;;;;;;7.50;98.40;;;;;;5086636;28;19976;-69
2021/12/24 16:21:58;;;;;;;;;;;7.40;98.30;;;;;;5083345;28;20051;-69
2021/12/24 16:24:23;;;;;;;;;;;7.40;98.30;;;;;;5087896;28;20019;-69
2021/12/24 16:26:49;;;;;;;;;;;7.40;98.30;;;;;;5083694;28;19926;-69
2021/12/24 16:29:18;;;;;;;;;;;7.40;98.60;;;;;;5083347;28;19916;-69
2021/12/24 16:31:48;;;;;;;;;;;7.40;98.30;;;;;;5086303;28;19924;-69